Time;durP1;ratioP1;P1;durP2;ratioP2;P2;SDS_P1;SDS_P2;PMS_P1;PMS_P2;Temp;Humidity;BMP_temperature;BMP_pressure;BME280_temperature;BME280_humidity;BME280_pressure;Samples;Min_cycle;Max_cycle;Signal;HPM_P1;HPM_P2
2022/10/14 03:43:17;;;;;;;;;;;;;;;8.19;100.00;99543.97;5010575;28;19984;-86
2022/10/14 03:45:45;;;;;;;;;;;;;;;8.25;100.00;99547.28;5012790;28;19921;-87
2022/10/14 03:48:24;;;;;;;;;;;;;;;8.26;100.00;99533.19;4996804;28;19921;-94
2022/10/14 03:50:52;;;;;;;;;;;;;;;8.29;100.00;99530.44;4996829;28;19918;-86
2022/10/14 03:53:17;;;;;;;;;;;;;;;8.31;100.00;99525.94;5013027;28;19917;-88
2022/10/14 03:55:45;;;;;;;;;;;;;;;8.32;100.00;99517.13;4995679;28;19925;-86
2022/10/14 03:58:10;;;;;;;;;;;;;;;8.35;100.00;99520.50;4996457;28;20024;-86
2022/10/14 04:00:38;;;;;;;;;;;;;;;8.36;100.00;99510.81;5013356;28;20012;-85
2022/10/14 04:03:05;;;;;;;;;;;;;;;8.39;100.00;99504.53;4996270;28;19940;-87
2022/10/14 04:05:32;;;;;;;;;;;;;;;8.41;100.00;99507.97;5012432;28;19918;-85
2022/10/14 04:08:00;;;;;;;;;;;;;;;8.42;100.00;99500.00;5013008;28;19949;-84
2022/10/14 04:10:28;;;;;;;;;;;;;;;8.42;100.00;99494.72;4994839;28;19917;-87
2022/10/14 04:13:04;;;;;;;;;;;;;;;8.42;100.00;99497.34;4996552;28;20005;-87
2022/10/14 04:15:29;;;;;;;;;;;;;;;8.45;100.00;99488.50;5012404;28;19921;-87
2022/10/14 04:17:55;;;;;;;;;;;;;;;8.46;100.00;99477.03;4996336;28;19925;-86
2022/10/14 04:20:20;;;;;;;;;;;;;;;8.48;100.00;99476.03;4988037;28;20017;-85
2022/10/14 04:22:45;;;;;;;;;;;;;;;8.50;100.00;99483.91;5012213;28;19918;-85
2022/10/14 04:25:11;;;;;;;;;;;;;;;8.50;100.00;99481.25;5011701;28;19929;-86
2022/10/14 04:27:36;;;;;;;;;;;;;;;8.50;100.00;99479.50;5013111;28;20347;-85
2022/10/14 04:30:01;;;;;;;;;;;;;;;8.52;100.00;99475.00;5011932;28;19918;-85
2022/10/14 04:32:26;;;;;;;;;;;;;;;8.53;100.00;99466.16;5011889;28;20383;-85
2022/10/14 04:34:53;;;;;;;;;;;;;;;8.58;100.00;99475.69;4995831;28;19918;-85
2022/10/14 04:37:19;;;;;;;;;;;;;;;8.57;100.00;99460.75;5012741;28;19957;-85
2022/10/14 04:39:44;;;;;;;;;;;;;;;8.59;100.00;99464.22;5011411;28;19964;-85
2022/10/14 04:42:09;;;;;;;;;;;;;;;8.59;100.00;99462.41;4990763;28;19965;-85
2022/10/14 04:44:34;;;;;;;;;;;;;;;8.61;100.00;99460.56;5003832;28;19929;-85
2022/10/14 04:47:00;;;;;;;;;;;;;;;8.62;100.00;99464.94;5004356;28;20044;-85
2022/10/14 04:49:25;;;;;;;;;;;;;;;8.63;100.00;99465.78;4985994;28;19918;-85
2022/10/14 04:51:50;;;;;;;;;;;;;;;8.63;100.00;99471.06;5003872;28;19992;-84
2022/10/14 04:54:16;;;;;;;;;;;;;;;8.66;100.00;99473.59;5003354;28;19921;-86
2022/10/14 04:56:41;;;;;;;;;;;;;;;8.66;100.00;99474.47;5002382;28;19925;-83
2022/10/14 04:59:06;;;;;;;;;;;;;;;8.69;100.00;99468.19;5003783;28;19944;-85
2022/10/14 05:01:32;;;;;;;;;;;;;;;8.68;100.00;99467.34;5003785;28;19918;-85
2022/10/14 05:03:57;;;;;;;;;;;;;;;8.70;100.00;99459.34;4985594;28;20008;-85
2022/10/14 05:06:23;;;;;;;;;;;;;;;8.72;100.00;99461.00;4985539;28;19981;-85
2022/10/14 07:41:07;;;;;;;;;;;;;;;5.70;100.00;99407.25;4997652;28;19933;-85
2022/10/14 07:43:33;;;;;;;;;;;;;;;5.69;100.00;99409.00;4996856;28;19936;-86
2022/10/14 07:46:03;;;;;;;;;;;;;;;5.67;100.00;99409.97;4995955;28;19917;-85
2022/10/14 07:48:29;;;;;;;;;;;;;;;5.64;100.00;99403.88;5008273;28;20020;-85
2022/10/14 07:50:55;;;;;;;;;;;;;;;5.64;100.00;99403.88;4987807;28;20004;-86
2022/10/14 07:53:21;;;;;;;;;;;;;;;5.63;100.00;99401.28;4995158;28;19918;-85
2022/10/14 07:55:52;;;;;;;;;;;;;;;5.63;100.00;99402.19;4983335;28;19922;-85
2022/10/14 07:58:21;;;;;;;;;;;;;;;5.59;100.00;99402.31;4996458;28;19928;-88
2022/10/14 08:00:47;;;;;;;;;;;;;;;5.57;100.00;99398.88;4977925;28;20045;-86
2022/10/14 08:03:12;;;;;;;;;;;;;;;5.55;100.00;99398.91;4996418;28;19925;-86
2022/10/14 08:05:37;;;;;;;;;;;;;;;5.54;100.00;99391.06;4977742;28;19918;-87
2022/10/14 08:08:02;;;;;;;;;;;;;;;5.54;100.00;99393.69;4997543;28;20284;-83
2022/10/14 08:10:28;;;;;;;;;;;;;;;5.57;100.00;99399.72;4999135;28;19921;-86
2022/10/14 08:12:53;;;;;;;;;;;;;;;5.58;100.00;99393.53;4998903;28;19921;-86
2022/10/14 08:15:18;;;;;;;;;;;;;;;5.57;100.00;99393.59;4999096;28;19954;-86
2022/10/14 08:17:44;;;;;;;;;;;;;;;5.54;100.00;99396.31;4998730;28;19968;-86
2022/10/14 08:20:09;;;;;;;;;;;;;;;5.57;100.00;99393.59;4984598;28;20005;-87
2022/10/14 08:22:34;;;;;;;;;;;;;;;5.64;100.00;99397.78;4997312;28;20384;-86
2022/10/14 08:25:00;;;;;;;;;;;;;;;5.56;100.00;99390.09;4995249;28;19968;-86
2022/10/14 08:27:30;;;;;;;;;;;;;;;5.58;100.00;99388.28;5008109;28;20361;-87
2022/10/14 08:29:55;;;;;;;;;;;;;;;5.60;100.00;99394.38;4995449;28;19922;-86
2022/10/14 08:32:22;;;;;;;;;;;;;;;5.59;100.00;99387.38;5007502;28;19987;-86
2022/10/14 08:34:47;;;;;;;;;;;;;;;5.58;100.00;99393.53;5007428;28;19922;-86
2022/10/14 08:37:12;;;;;;;;;;;;;;;5.60;100.00;99398.75;4996172;28;20296;-86
2022/10/14 08:39:37;;;;;;;;;;;;;;;5.57;100.00;99394.47;4997535;28;19922;-86
2022/10/14 08:42:12;;;;;;;;;;;;;;;5.61;100.00;99389.97;4998495;28;19945;-87
2022/10/14 08:44:44;;;;;;;;;;;;;;;5.57;100.00;99391.84;4984588;28;19922;-86
2022/10/14 08:47:11;;;;;;;;;;;;;;;5.60;100.00;99389.13;5007194;28;19996;-86
2022/10/14 08:49:55;;;;;;;;;;;;;;;5.57;100.00;99388.34;4995642;28;19987;-86
2022/10/14 08:52:36;;;;;;;;;;;;;;;5.57;100.00;99383.94;4994795;28;19918;-87
2022/10/14 08:55:22;;;;;;;;;;;;;;;5.50;100.00;99387.63;4996066;28;19914;-86
2022/10/14 08:57:52;;;;;;;;;;;;;;;5.54;100.00;99386.66;4994914;28;19921;-86
2022/10/14 09:00:19;;;;;;;;;;;;;;;5.56;100.00;99382.22;4996613;28;19953;-87
2022/10/14 09:02:51;;;;;;;;;;;;;;;5.54;100.00;99381.41;4987348;28;20288;-86
2022/10/14 09:05:26;;;;;;;;;;;;;;;5.54;100.00;99378.78;4995224;28;20025;-89
2022/10/14 09:07:54;;;;;;;;;;;;;;;5.55;100.00;99375.25;4994377;28;19945;-86
2022/10/14 09:10:39;;;;;;;;;;;;;;;5.91;100.00;99367.16;4996086;28;19932;-86
2022/10/14 09:13:14;;;;;;;;;;;;;;;6.53;100.00;99360.84;4985789;28;19918;-86
2022/10/14 09:15:41;;;;;;;;;;;;;;;6.81;100.00;99362.56;4995273;28;19932;-85
2022/10/14 09:18:24;;;;;;;;;;;;;;;6.99;100.00;99363.69;5006660;28;19921;-86
2022/10/14 09:20:50;;;;;;;;;;;;;;;7.12;100.00;99363.28;5006745;28;19914;-87
2022/10/14 09:23:17;;;;;;;;;;;;;;;7.23;100.00;99353.22;4984583;28;20332;-86
2022/10/14 09:25:48;;;;;;;;;;;;;;;7.33;100.00;99354.59;4986180;28;19963;-86
2022/10/14 09:28:14;;;;;;;;;;;;;;;7.40;100.00;99353.47;4996211;28;19953;-86
2022/10/14 09:30:39;;;;;;;;;;;;;;;7.51;100.00;99345.13;4997450;28;19976;-86
2022/10/14 09:33:05;;;;;;;;;;;;;;;7.58;100.00;99349.28;4986650;28;19917;-86
2022/10/14 09:35:40;;;;;;;;;;;;;;;7.64;100.00;99350.81;4986436;28;20369;-85
2022/10/14 09:38:06;;;;;;;;;;;;;;;7.69;100.00;99346.25;4996085;28;19918;-86
2022/10/14 09:40:35;;;;;;;;;;;;;;;7.73;100.00;99355.72;4994505;28;19925;-86
2022/10/14 09:43:09;;;;;;;;;;;;;;;7.75;100.00;99345.97;4994517;28;19928;-86
2022/10/14 09:45:43;;;;;;;;;;;;;;;7.83;100.00;99343.06;5005818;28;19996;-86
2022/10/14 09:48:13;;;;;;;;;;;;;;;7.87;100.00;99335.91;4997161;28;20384;-86
2022/10/14 09:50:43;;;;;;;;;;;;;;;7.93;100.00;99327.72;4995201;28;20312;-86
2022/10/14 09:53:16;;;;;;;;;;;;;;;7.95;100.00;99334.66;5004936;28;19924;-85
2022/10/14 09:55:51;;;;;;;;;;;;;;;7.97;100.00;99329.34;4994576;28;19944;-86
2022/10/14 09:58:21;;;;;;;;;;;;;;;8.01;100.00;99325.66;4997110;28;20008;-85
2022/10/14 10:03:50;;;;;;;;;;;;;;;8.08;100.00;99321.84;4996116;28;19925;-85
2022/10/14 10:06:20;;;;;;;;;;;;;;;8.14;100.00;99334.81;4994977;28;19921;-86
2022/10/14 10:08:51;;;;;;;;;;;;;;;8.15;100.00;99325.97;4993410;28;20024;-85
2022/10/14 10:11:27;;;;;;;;;;;;;;;8.17;100.00;99326.75;4994817;28;19917;-86
2022/10/14 10:13:53;;;;;;;;;;;;;;;8.23;100.00;99319.50;4994145;28;19926;-86
2022/10/14 10:16:33;;;;;;;;;;;;;;;8.24;100.00;99314.16;4996751;28;19918;-83
2022/10/14 10:19:18;;;;;;;;;;;;;;;8.26;100.00;99311.47;4985129;28;19918;-86
2022/10/14 10:21:43;;;;;;;;;;;;;;;8.26;100.00;99307.03;5005904;28;20356;-85
2022/10/14 10:24:16;;;;;;;;;;;;;;;8.29;100.00;99312.19;5004230;28;20331;-86
2022/10/14 10:26:42;;;;;;;;;;;;;;;8.34;100.00;99302.31;4990700;28;20351;-86
2022/10/14 10:29:21;;;;;;;;;;;;;;;8.33;100.00;99310.31;4975406;28;19949;-86
2022/10/14 10:31:49;;;;;;;;;;;;;;;8.36;100.00;99302.28;4996725;28;19924;-86
2022/10/14 10:34:18;;;;;;;;;;;;;;;8.42;100.00;99314.34;4982846;28;19925;-86
2022/10/14 10:36:52;;;;;;;;;;;;;;;8.43;100.00;99301.09;5006036;28;19921;-86
2022/10/14 10:39:30;;;;;;;;;;;;;;;8.45;100.00;99306.31;4992627;28;19925;-85
2022/10/14 10:42:16;;;;;;;;;;;;;;;8.45;100.00;99299.25;4992196;28;20391;-84
2022/10/14 10:44:48;;;;;;;;;;;;;;;8.48;100.00;99298.28;4982564;28;19969;-90
2022/10/14 10:47:26;;;;;;;;;;;;;;;8.52;100.00;99297.22;4990797;28;19924;-85
2022/10/14 10:50:10;;;;;;;;;;;;;;;8.52;100.00;99289.28;4991862;28;19917;-85
2022/10/14 10:52:56;;;;;;;;;;;;;;;8.54;100.00;99290.94;4993467;28;19922;-86
2022/10/14 10:55:27;;;;;;;;;;;;;;;8.58;100.00;99285.53;4986817;28;19918;-86
2022/10/14 10:58:11;;;;;;;;;;;;;;;8.58;100.00;99280.25;4996163;28;19922;-88
2022/10/14 11:00:43;;;;;;;;;;;;;;;8.57;100.00;99281.16;4996063;28;19922;-85
2022/10/14 11:03:19;;;;;;;;;;;;;;;8.59;100.00;99281.97;4996021;28;19921;-85
2022/10/14 11:05:59;;;;;;;;;;;;;;;8.62;100.00;99287.13;4995984;28;19922;-84
2022/10/14 11:12:02;;;;;;;;;;;;;;;8.67;100.00;99271.94;4994959;28;19944;-84
2022/10/14 11:14:45;;;;;;;;;;;;;;;8.67;100.00;99269.31;4988014;28;19922;-85
2022/10/14 11:17:10;;;;;;;;;;;;;;;8.68;100.00;99277.16;4995770;28;20284;-85
2022/10/14 11:19:50;;;;;;;;;;;;;;;8.69;100.00;99270.09;4994771;28;19918;-85
2022/10/14 11:22:44;;;;;;;;;;;;;;;8.73;100.00;99258.47;4995739;28;19922;-85
2022/10/14 11:25:19;;;;;;;;;;;;;;;8.77;100.00;99252.13;4975747;28;20005;-85
2022/10/14 11:27:44;;;;;;;;;;;;;;;7.93;100.00;99257.38;4995219;28;20017;-85
2022/10/14 11:30:13;;;;;;;;;;;;;;;7.38;100.00;99255.13;4978213;28;20024;-84
2022/10/14 11:32:41;;;;;;;;;;;;;;;7.23;100.00;99263.63;4984950;28;20324;-85
2022/10/14 11:35:06;;;;;;;;;;;;;;;7.06;100.00;99258.97;4995495;28;20360;-85
2022/10/14 11:37:38;;;;;;;;;;;;;;;7.00;100.00;99264.44;4994344;28;19964;-85
2022/10/14 11:40:27;;;;;;;;;;;;;;;6.94;100.00;99260.28;4994979;28;20447;-85
2022/10/14 11:43:08;;;;;;;;;;;;;;;6.85;100.00;99256.19;4984850;28;19930;-86
2022/10/14 11:45:47;;;;;;;;;;;;;;;6.84;100.00;99269.41;4995084;28;20000;-86
2022/10/14 11:48:37;;;;;;;;;;;;;;;6.80;100.00;99262.56;4994568;28;19922;-85
2022/10/14 11:51:24;;;;;;;;;;;;;;;6.76;100.00;99261.78;4994382;28;20016;-85
2022/10/14 11:54:07;;;;;;;;;;;;;;;6.72;100.00;99268.94;4992425;28;19918;-86
2022/10/14 11:56:53;;;;;;;;;;;;;;;6.67;100.00;99262.97;4995090;28;19926;-85
2022/10/14 11:59:35;;;;;;;;;;;;;;;6.67;100.00;99273.50;4977472;28;19960;-85
2022/10/14 12:02:11;;;;;;;;;;;;;;;6.64;100.00;99273.63;4994977;28;20004;-85
2022/10/14 12:04:39;;;;;;;;;;;;;;;6.61;100.00;99267.59;4993992;28;19918;-85
2022/10/14 12:07:09;;;;;;;;;;;;;;;6.59;100.00;99267.66;4994787;28;19922;-85
2022/10/14 12:09:40;;;;;;;;;;;;;;;6.58;100.00;99272.97;4993452;28;19924;-85
2022/10/14 12:12:08;;;;;;;;;;;;;;;6.58;100.00;99287.00;4994772;28;19996;-85
2022/10/14 12:15:05;;;;;;;;;;;;;;;6.57;100.00;99282.63;4995008;28;19929;-85
2022/10/14 12:17:37;;;;;;;;;;;;;;;6.49;100.00;99288.19;4970415;28;19918;-85
2022/10/14 12:20:13;;;;;;;;;;;;;;;6.48;100.00;99290.88;4993646;28;19922;-85
2022/10/14 12:22:38;;;;;;;;;;;;;;;6.39;100.00;99296.44;4993463;28;20188;-85
2022/10/14 12:25:06;;;;;;;;;;;;;;;6.43;100.00;99288.38;4994487;28;19925;-85
2022/10/14 12:27:32;;;;;;;;;;;;;;;6.35;100.00;99288.63;4993130;28;19922;-86
2022/10/14 12:29:57;;;;;;;;;;;;;;;6.35;100.00;99280.75;4994519;28;20299;-88
2022/10/14 12:32:23;;;;;;;;;;;;;;;6.31;100.00;99273.84;4994501;28;19938;-85
2022/10/14 12:34:49;;;;;;;;;;;;;;;6.29;100.00;99269.56;4994241;28;19914;-85
2022/10/14 12:37:33;;;;;;;;;;;;;;;6.28;100.00;99266.06;4976739;28;19921;-85
2022/10/14 12:40:04;;;;;;;;;;;;;;;6.29;100.00;99267.78;4978949;28;19928;-84
2022/10/14 12:42:29;;;;;;;;;;;;;;;6.24;100.00;99253.94;4998836;28;20004;-85
2022/10/14 12:44:56;;;;;;;;;;;;;;;6.24;100.00;99251.31;4984316;28;20437;-85
2022/10/14 12:47:27;;;;;;;;;;;;;;;6.17;100.00;99247.13;4987076;28;19957;-85
2022/10/14 12:49:55;;;;;;;;;;;;;;;6.15;100.00;99248.97;4995833;28;20016;-85
2022/10/14 12:52:39;;;;;;;;;;;;;;;6.11;100.00;99236.81;4998195;28;19945;-85
2022/10/14 12:55:13;;;;;;;;;;;;;;;6.08;100.00;99231.66;4996079;28;19929;-85
2022/10/14 12:57:39;;;;;;;;;;;;;;;6.05;100.00;99226.50;4984923;28;19964;-85
2022/10/14 13:00:22;;;;;;;;;;;;;;;6.11;100.00;99206.13;4996064;28;19918;-84
2022/10/14 13:02:53;;;;;;;;;;;;;;;6.18;100.00;99206.78;4996180;28;19924;-84
2022/10/14 13:05:21;;;;;;;;;;;;;;;6.12;100.00;99201.72;4984428;28;19924;-86
2022/10/14 13:08:06;;;;;;;;;;;;;;;6.11;100.00;99210.50;4982968;28;19928;-85
2022/10/14 13:10:38;;;;;;;;;;;;;;;6.13;100.00;99195.56;4998016;28;19918;-84
2022/10/14 13:13:22;;;;;;;;;;;;;;;6.10;100.00;99203.56;4984621;28;19921;-84
2022/10/14 13:15:49;;;;;;;;;;;;;;;6.10;100.00;99190.41;4995626;28;19922;-85
2022/10/14 13:18:30;;;;;;;;;;;;;;;6.09;100.00;99196.56;4984408;28;19918;-86
2022/10/14 13:20:56;;;;;;;;;;;;;;;6.06;100.00;99191.41;4983709;28;19918;-85
2022/10/14 13:23:29;;;;;;;;;;;;;;;6.11;100.00;99192.09;4982971;28;19929;-84
2022/10/14 13:26:18;;;;;;;;;;;;;;;6.05;100.00;99190.56;5006896;28;19918;-90
2022/10/14 13:28:50;;;;;;;;;;;;;;;6.05;100.00;99192.31;4944887;28;19925;-84
2022/10/14 13:31:38;;;;;;;;;;;;;;;5.99;100.00;99193.38;4994650;28;19918;-85
2022/10/14 13:34:06;;;;;;;;;;;;;;;6.02;100.00;99195.06;4983872;28;19922;-84
2022/10/14 13:36:36;;;;;;;;;;;;;;;6.00;100.00;99185.44;4984846;28;20020;-84
2022/10/14 13:39:04;;;;;;;;;;;;;;;6.02;100.00;99195.91;4995953;28;19922;-84
2022/10/14 13:41:33;;;;;;;;;;;;;;;6.00;100.00;99198.59;4995495;28;20262;-87
2022/10/14 13:44:00;;;;;;;;;;;;;;;5.96;100.00;99196.09;5006751;28;19928;-84
2022/10/14 13:46:34;;;;;;;;;;;;;;;5.96;100.00;99194.34;5006185;28;19925;-85
2022/10/14 13:49:01;;;;;;;;;;;;;;;5.94;100.00;99200.53;4994817;28;19928;-86
2022/10/14 13:51:45;;;;;;;;;;;;;;;5.97;100.00;99197.84;5006404;28;19917;-87
2022/10/14 13:54:18;;;;;;;;;;;;;;;5.93;100.00;99197.03;4984562;28;19929;-89
2022/10/14 13:56:56;;;;;;;;;;;;;;;5.96;100.00;99196.97;4995065;28;20297;-85
2022/10/14 13:59:23;;;;;;;;;;;;;;;5.92;100.00;99199.72;4994775;28;19918;-86
2022/10/14 14:01:53;;;;;;;;;;;;;;;5.98;100.00;99194.28;5006310;28;19949;-86
2022/10/14 14:04:21;;;;;;;;;;;;;;;5.91;100.00;99198.88;4994291;28;19984;-85
2022/10/14 14:06:48;;;;;;;;;;;;;;;5.94;100.00;99193.50;5005901;28;19923;-85
2022/10/14 14:09:18;;;;;;;;;;;;;;;5.94;100.00;99190.88;4981659;28;20301;-85
2022/10/14 14:11:45;;;;;;;;;;;;;;;5.91;100.00;99187.50;4983290;28;19968;-89
2022/10/14 14:14:18;;;;;;;;;;;;;;;5.94;100.00;99187.41;4996631;28;19921;-86
2022/10/14 14:16:59;;;;;;;;;;;;;;;5.92;100.00;99171.66;4982840;28;20381;-85
2022/10/14 14:19:45;;;;;;;;;;;;;;;5.91;100.00;99161.19;4998127;28;19924;-87
2022/10/14 14:22:17;;;;;;;;;;;;;;;5.90;100.00;99165.59;4994076;28;19922;-87
2022/10/14 14:24:43;;;;;;;;;;;;;;;5.90;100.00;99168.22;4981471;28;19922;-86
2022/10/14 14:27:16;;;;;;;;;;;;;;;5.86;100.00;99168.41;4984643;28;20380;-84
2022/10/14 14:29:46;;;;;;;;;;;;;;;5.90;100.00;99172.63;4994142;28;19961;-87
2022/10/14 14:32:17;;;;;;;;;;;;;;;5.85;100.00;99172.78;4994070;28;19921;-87
2022/10/14 14:34:44;;;;;;;;;;;;;;;5.86;100.00;99168.41;5006093;28;19965;-86
2022/10/14 14:37:20;;;;;;;;;;;;;;;5.86;100.00;99166.63;5005677;28;19924;-88
2022/10/14 14:40:06;;;;;;;;;;;;;;;5.84;100.00;99165.81;4982229;28;20396;-87
2022/10/14 14:42:36;;;;;;;;;;;;;;;5.86;100.00;99156.09;5003769;28;19975;-87
2022/10/14 14:45:21;;;;;;;;;;;;;;;5.82;100.00;99162.34;4993659;28;19918;-86
2022/10/14 14:47:50;;;;;;;;;;;;;;;5.87;100.00;99165.72;4994542;28;19925;-86
2022/10/14 14:50:17;;;;;;;;;;;;;;;5.85;100.00;99162.25;4980265;28;19926;-87
2022/10/14 14:52:43;;;;;;;;;;;;;;;5.88;100.00;99163.94;4976973;28;19960;-84
2022/10/14 14:55:27;;;;;;;;;;;;;;;5.87;100.00;99170.09;4981230;28;20015;-85
2022/10/14 14:58:00;;;;;;;;;;;;;;;5.88;100.00;99170.03;4996268;28;19926;-87
2022/10/14 15:00:25;;;;;;;;;;;;;;;5.84;100.00;99168.44;4996446;28;19979;-86
2022/10/14 15:02:54;;;;;;;;;;;;;;;5.91;100.00;99169.94;4987375;28;20346;-87
2022/10/14 15:05:19;;;;;;;;;;;;;;;5.87;100.00;99170.09;5000382;28;20044;-87
2022/10/14 15:07:45;;;;;;;;;;;;;;;5.83;100.00;99166.72;4993648;28;20027;-87
2022/10/14 15:10:21;;;;;;;;;;;;;;;5.88;100.00;99154.25;4976225;28;20295;-88
2022/10/14 15:12:54;;;;;;;;;;;;;;;5.83;100.00;99149.16;5002716;28;19976;-84
2022/10/14 15:15:25;;;;;;;;;;;;;;;5.80;100.00;99145.78;4993938;28;20404;-85
2022/10/14 15:18:23;;;;;;;;;;;;;;;5.77;100.00;99149.34;4997349;28;19930;-85
2022/10/14 15:20:49;;;;;;;;;;;;;;;5.82;100.00;99150.09;4941333;28;19922;-84
2022/10/14 15:23:33;;;;;;;;;;;;;;;5.80;100.00;99143.16;4982459;28;19922;-84
2022/10/14 15:25:58;;;;;;;;;;;;;;;5.83;100.00;99145.69;4994430;28;19917;-86
2022/10/14 15:28:29;;;;;;;;;;;;;;;5.77;100.00;99145.88;5005483;28;20269;-84
2022/10/14 15:30:56;;;;;;;;;;;;;;;5.81;100.00;99160.66;4980038;28;19925;-86
2022/10/14 15:33:22;;;;;;;;;;;;;;;5.82;100.00;99159.72;4990042;28;19971;-84
2022/10/14 15:35:55;;;;;;;;;;;;;;;5.82;100.00;99162.34;4997428;28;19957;-85
2022/10/14 15:38:24;;;;;;;;;;;;;;;5.84;100.00;99150.03;4979000;28;20468;-86
2022/10/14 15:40:49;;;;;;;;;;;;;;;5.81;100.00;99145.72;4995037;28;19976;-86
2022/10/14 15:43:19;;;;;;;;;;;;;;;5.80;100.00;99138.75;4986275;28;19921;-89
2022/10/14 15:45:46;;;;;;;;;;;;;;;5.78;100.00;99131.84;4995122;28;19917;-85
2022/10/14 15:48:26;;;;;;;;;;;;;;;5.74;100.00;99130.22;4992930;28;19929;-90
2022/10/14 15:50:52;;;;;;;;;;;;;;;5.71;100.00;99132.94;4994263;28;19961;-82
2022/10/14 15:53:18;;;;;;;;;;;;;;;5.71;100.00;99128.56;4994055;28;19925;-85
2022/10/14 15:55:51;;;;;;;;;;;;;;;5.73;100.00;99125.88;4995405;28;19946;-88
2022/10/14 15:58:16;;;;;;;;;;;;;;;5.73;100.00;99125.88;4977910;28;20376;-86
2022/10/14 16:00:42;;;;;;;;;;;;;;;5.75;100.00;99118.78;4977500;28;19953;-86
2022/10/14 16:03:09;;;;;;;;;;;;;;;5.72;100.00;99118.91;4995026;28;19917;-86
2022/10/14 16:05:35;;;;;;;;;;;;;;;5.77;100.00;99120.44;4994823;28;19925;-85
2022/10/14 16:08:00;;;;;;;;;;;;;;;5.77;100.00;99109.94;4976335;28;19976;-86
2022/10/14 16:10:28;;;;;;;;;;;;;;;5.79;100.00;99108.13;4994897;28;19918;-86
2022/10/14 16:15:59;;;;;;;;;;;;;;;5.71;100.00;99101.41;4993657;28;20024;-88
2022/10/14 16:18:24;;;;;;;;;;;;;;;5.75;100.00;99109.13;4976934;28;19922;-87
2022/10/14 16:20:50;;;;;;;;;;;;;;;5.68;100.00;99106.75;4994574;28;19922;-87
2022/10/14 16:23:19;;;;;;;;;;;;;;;5.67;100.00;99099.81;4993759;28;19956;-86
2022/10/14 16:25:47;;;;;;;;;;;;;;;5.70;100.00;99094.44;4991077;28;20008;-85
2022/10/14 16:28:16;;;;;;;;;;;;;;;5.67;100.00;99087.50;4983824;28;20509;-87
2022/10/14 16:30:47;;;;;;;;;;;;;;;5.66;100.00;99082.28;4986946;28;19925;-88
2022/10/14 16:33:16;;;;;;;;;;;;;;;5.66;100.00;99079.66;4976379;28;19960;-90
2022/10/14 16:35:41;;;;;;;;;;;;;;;5.67;100.00;99079.63;4992680;28;20305;-85
2022/10/14 16:38:09;;;;;;;;;;;;;;;5.73;100.00;99083.81;4991794;28;19921;-85
2022/10/14 16:40:36;;;;;;;;;;;;;;;5.67;100.00;99078.78;4993836;28;19930;-87
2022/10/14 16:43:02;;;;;;;;;;;;;;;5.66;100.00;99079.66;4991810;28;19926;-87
2022/10/14 16:45:40;;;;;;;;;;;;;;;5.59;100.00;99082.50;4992971;28;19929;-89
2022/10/14 16:48:15;;;;;;;;;;;;;;;5.62;100.00;99079.78;4993879;28;20008;-88
2022/10/14 16:50:41;;;;;;;;;;;;;;;5.62;100.00;99077.16;4975928;28;19922;-85
2022/10/14 16:55:55;;;;;;;;;;;;;;;5.66;100.00;99077.03;4993876;28;19929;-87
2022/10/14 16:58:26;;;;;;;;;;;;;;;5.59;100.00;99081.66;4993220;28;19917;-85
2022/10/14 17:00:51;;;;;;;;;;;;;;;5.69;100.00;99082.19;4993158;28;19918;-88
2022/10/14 17:03:17;;;;;;;;;;;;;;;6.34;100.00;99073.75;4993972;28;19918;-86
2022/10/14 17:05:42;;;;;;;;;;;;;;;6.71;100.00;99074.16;4992833;28;19926;-85
2022/10/14 17:08:08;;;;;;;;;;;;;;;6.97;100.00;99069.66;4987944;28;19953;-89
2022/10/14 17:10:36;;;;;;;;;;;;;;;7.14;100.00;99071.63;4992283;28;19928;-84
2022/10/14 17:13:01;;;;;;;;;;;;;;;7.22;100.00;99069.53;4991914;28;19949;-86
2022/10/14 17:15:54;;;;;;;;;;;;;;;7.34;100.00;99073.44;4992654;28;20340;-91
2022/10/14 17:18:21;;;;;;;;;;;;;;;7.45;100.00;99071.22;4993672;28;19945;-88
2022/10/14 17:20:46;;;;;;;;;;;;;;;7.52;100.00;99071.84;4976114;28;19917;-89
2022/10/14 17:23:15;;;;;;;;;;;;;;;7.58;100.00;99063.69;4991999;28;19924;-85
2022/10/14 17:25:56;;;;;;;;;;;;;;;7.63;100.00;99062.53;4992627;28;19925;-89
2022/10/14 17:28:22;;;;;;;;;;;;;;;7.70;100.00;99062.28;4993011;28;20369;-88
2022/10/14 17:30:47;;;;;;;;;;;;;;;7.75;100.00;99066.44;4976091;28;19920;-84
2022/10/14 17:33:33;;;;;;;;;;;;;;;7.79;100.00;99061.91;4993624;28;19921;-87
2022/10/14 17:36:20;;;;;;;;;;;;;;;7.88;100.00;99065.91;4992691;28;19940;-86
2022/10/14 17:39:04;;;;;;;;;;;;;;;7.90;100.00;99050.91;4988107;28;19922;-87
2022/10/14 17:41:32;;;;;;;;;;;;;;;7.97;100.00;99052.31;4983774;28;19981;-87
2022/10/14 17:43:59;;;;;;;;;;;;;;;8.01;100.00;99048.63;4991734;28;19965;-85
2022/10/14 17:46:25;;;;;;;;;;;;;;;8.03;100.00;99046.78;4995920;28;19922;-88
2022/10/14 17:48:56;;;;;;;;;;;;;;;8.06;100.00;99051.94;4996103;28;19924;-89
2022/10/14 17:51:25;;;;;;;;;;;;;;;8.08;100.00;99050.06;4982449;28;19929;-87
2022/10/14 17:56:38;;;;;;;;;;;;;;;8.19;100.00;99046.97;4983352;28;19921;-88
2022/10/14 17:59:05;;;;;;;;;;;;;;;8.19;100.00;99046.97;4984603;28;19961;-84
2022/10/14 18:04:37;;;;;;;;;;;;;;;8.27;100.00;99043.97;4992105;28;22311;-92
2022/10/14 18:07:02;;;;;;;;;;;;;;;8.29;100.00;99031.56;4983631;28;20380;-87
2022/10/14 18:09:35;;;;;;;;;;;;;;;8.32;100.00;99036.69;4993924;28;19952;-89
2022/10/14 18:12:01;;;;;;;;;;;;;;;8.36;100.00;99038.28;4997226;28;19922;-86
2022/10/14 18:14:26;;;;;;;;;;;;;;;8.36;100.00;99033.84;4990935;28;20317;-87
2022/10/14 18:16:52;;;;;;;;;;;;;;;8.39;100.00;99032.84;4991787;28;19922;-86
2022/10/14 18:19:19;;;;;;;;;;;;;;;8.44;100.00;99030.91;4997458;28;20004;-87
2022/10/14 18:21:44;;;;;;;;;;;;;;;8.45;100.00;99029.09;4993406;28;19959;-87
2022/10/14 18:24:11;;;;;;;;;;;;;;;8.47;100.00;99022.84;4999462;28;19951;-87
2022/10/14 18:26:38;;;;;;;;;;;;;;;8.48;100.00;99021.88;4985456;28;19925;-84
2022/10/14 18:29:22;;;;;;;;;;;;;;;8.54;100.00;99013.69;4982978;28;19941;-88
2022/10/14 18:31:48;;;;;;;;;;;;;;;8.56;100.00;99012.78;4984757;28;19921;-90
2022/10/14 18:34:24;;;;;;;;;;;;;;;8.60;100.00;99006.41;5005355;28;19957;-89
2022/10/14 18:36:49;;;;;;;;;;;;;;;8.62;100.00;99002.78;4983079;28;19924;-88
2022/10/14 18:39:28;;;;;;;;;;;;;;;8.63;100.00;98995.69;4978373;28;19921;-90
2022/10/14 18:44:41;;;;;;;;;;;;;;;8.67;100.00;98994.63;4980478;28;19928;-87
2022/10/14 18:47:22;;;;;;;;;;;;;;;8.68;100.00;98991.03;4980949;28;20213;-88
2022/10/14 18:49:58;;;;;;;;;;;;;;;;;;;;;
2022/10/14 18:52:24;;;;;;;;;;;;;;;8.70;100.00;98984.78;4981611;28;19928;-87
2022/10/14 18:54:51;;;;;;;;;;;;;;;8.70;100.00;98978.63;4962895;28;20356;-87
2022/10/14 18:57:17;;;;;;;;;;;;;;;8.71;100.00;98975.06;4964701;28;19922;-85
2022/10/14 18:59:50;;;;;;;;;;;;;;;8.72;100.00;98966.22;4979363;28;19922;-90
2022/10/14 19:02:18;;;;;;;;;;;;;;;8.72;100.00;98966.22;4982352;28;19922;-86
2022/10/14 19:04:43;;;;;;;;;;;;;;;8.72;100.00;98964.41;4964084;28;20381;-88
2022/10/14 19:07:09;;;;;;;;;;;;;;;8.72;100.00;98956.50;4964601;28;19917;-86
2022/10/14 19:09:34;;;;;;;;;;;;;;;8.77;100.00;98952.78;4979922;28;20419;-85
2022/10/14 19:12:39;;;;;;;;;;;;;;;8.77;100.00;98948.34;4965817;28;19918;-89
2022/10/14 19:14:54;;;;;;;;;;;;;;;7.77;100.00;98950.31;4985611;28;19930;-86
2022/10/14 19:17:23;;;;;;;;;;;;;;;7.40;100.00;98946.66;4968035;28;19969;-87
2022/10/14 19:19:50;;;;;;;;;;;;;;;7.24;100.00;98941.19;4985674;28;19933;-89
2022/10/14 19:22:18;;;;;;;;;;;;;;;7.20;100.00;98944.91;4968678;28;19918;-86
2022/10/14 19:24:44;;;;;;;;;;;;;;;7.06;100.00;98943.69;4984637;28;19937;-84
2022/10/14 19:27:09;;;;;;;;;;;;;;;7.00;100.00;98935.19;4986176;28;20285;-87
2022/10/14 19:29:37;;;;;;;;;;;;;;;6.95;100.00;98929.28;4967114;28;19922;-88
2022/10/14 19:32:02;;;;;;;;;;;;;;;8.07;100.00;98918.22;4984542;28;19925;-84
2022/10/14 19:34:30;;;;;;;;;;;;;;;7.90;100.00;98913.72;4986160;28;20290;-87
2022/10/14 19:37:15;;;;;;;;;;;;;;;7.21;100.00;98917.63;4968741;28;19921;-90
2022/10/14 19:39:43;;;;;;;;;;;;;;;6.98;100.00;98916.81;4971238;28;20005;-88
2022/10/14 19:42:36;;;;;;;;;;;;;;;;;;;;;